createdAt,value
2022-12-23T00:01:31.705Z,102358.75
2022-12-23T00:06:33.959Z,102344.47
2022-12-23T00:11:36.253Z,102341.72
2022-12-23T00:16:39.836Z,102339.22
2022-12-23T00:21:42.106Z,102341.97
2022-12-23T00:26:44.192Z,102345.47
2022-12-23T00:31:46.351Z,102343.75
2022-12-23T00:36:48.481Z,102345.47
2022-12-23T00:42:08.993Z,102339.22
2022-12-23T00:47:31.030Z,102349.84
2022-12-23T00:52:32.863Z,102354.38
2022-12-23T00:57:35.002Z,102335.56
2022-12-23T01:02:55.801Z,102347.00
2022-12-23T01:07:58.013Z,102346.34
2022-12-23T01:13:00.168Z,102345.47
2022-12-23T01:18:02.429Z,102350.78
2022-12-23T01:23:05.084Z,102341.88
2022-12-23T01:28:07.454Z,102356.81
2022-12-23T01:33:09.534Z,102352.44
2022-12-23T01:38:12.144Z,102344.63
2022-12-23T01:43:17.065Z,102347.19
2022-12-23T01:48:27.092Z,102356.97
2022-12-23T01:53:33.435Z,102350.78
2022-12-23T01:58:42.546Z,102356.09
2022-12-23T02:03:46.997Z,102353.44
2022-12-23T02:09:07.868Z,102338.72
2022-12-23T02:14:44.872Z,102365.84
2022-12-23T02:20:17.848Z,102344.63
2022-12-23T02:25:52.617Z,102344.53
2022-12-23T02:31:03.061Z,102341.81
2022-12-23T02:36:31.412Z,102336.59
2022-12-23T02:41:51.691Z,102334.78
2022-12-23T02:47:00.746Z,102334.00
2022-12-23T02:52:08.454Z,102324.25
2022-12-23T02:57:13.745Z,102328.69
2022-12-23T03:02:15.996Z,102320.81
2022-12-23T03:07:42.965Z,102319.00
2022-12-23T03:12:54.286Z,102310.97
2022-12-23T03:18:24.806Z,102309.84
2022-12-23T03:23:39.644Z,102294.88
2022-12-23T03:28:59.486Z,102296.69
2022-12-23T03:34:06.707Z,102290.59
2022-12-23T03:39:13.287Z,102304.66
2022-12-23T03:44:27.881Z,102298.56
2022-12-23T03:49:36.012Z,102295.91
2022-12-23T03:54:53.937Z,102276.78
2022-12-23T03:59:56.553Z,102297.53
2022-12-23T04:05:21.436Z,102297.44
2022-12-23T04:10:25.265Z,102302.00
2022-12-23T04:15:27.860Z,102303.00
2022-12-23T04:20:30.987Z,102296.75
2022-12-23T04:25:33.175Z,102301.22
2022-12-23T04:30:36.650Z,102285.63
2022-12-23T04:35:38.892Z,102301.22
2022-12-23T04:40:41.041Z,102301.22
2022-12-23T04:45:43.357Z,102299.41
2022-12-23T04:50:45.594Z,102297.16
2022-12-23T04:55:51.869Z,102302.94
2022-12-23T05:01:05.778Z,102300.09
2022-12-23T05:06:08.312Z,102296.50
2022-12-23T05:11:10.380Z,102285.97
2022-12-23T05:16:12.548Z,102294.03
2022-12-23T05:21:15.107Z,102288.72
2022-12-23T05:26:17.201Z,102302.94
2022-12-23T05:31:20.166Z,102297.63
2022-12-23T05:36:22.410Z,102303.78
2022-12-23T05:41:24.793Z,102304.72
2022-12-23T05:46:27.479Z,102315.25
2022-12-23T05:51:29.828Z,102296.56
2022-12-23T05:56:31.964Z,102304.47
2022-12-23T06:01:34.275Z,102304.53
2022-12-23T06:06:36.630Z,102311.75
2022-12-23T06:11:38.802Z,102304.66
2022-12-23T06:16:40.964Z,102299.41
2022-12-23T06:21:43.288Z,102310.91
2022-12-23T06:26:45.377Z,102315.25
2022-12-23T06:31:47.939Z,102320.56
2022-12-23T06:36:50.343Z,102311.75
2022-12-23T06:41:52.494Z,102324.94
2022-12-23T06:46:54.637Z,102329.28
2022-12-23T06:51:56.856Z,102341.72
2022-12-23T06:56:59.155Z,102341.81
2022-12-23T07:02:01.475Z,102329.47
2022-12-23T07:07:03.828Z,102324.16
2022-12-23T07:12:06.343Z,102333.84
2022-12-23T07:17:08.665Z,102327.69
2022-12-23T07:22:11.109Z,102328.53
2022-12-23T07:27:13.343Z,102333.00
2022-12-23T07:32:15.353Z,102325.78
2022-12-23T07:37:17.508Z,102332.81
2022-12-23T07:42:47.399Z,102335.47
2022-12-23T07:47:42.317Z,102337.38
2022-12-23T07:52:44.518Z,102347.13
2022-12-23T07:57:50.903Z,102351.50
2022-12-23T08:02:53.317Z,102340.25
2022-12-23T08:07:55.549Z,102360.22
2022-12-23T08:13:01.358Z,102357.75
2022-12-23T08:18:03.524Z,102365.69
2022-12-23T08:23:05.629Z,102367.50
2022-12-23T08:28:07.720Z,102354.63
2022-12-23T08:33:09.864Z,102371.00
2022-12-23T08:38:12.103Z,102370.16
2022-12-23T08:43:14.192Z,102370.22
2022-12-23T08:48:16.858Z,102380.69
2022-12-23T08:53:19.066Z,102378.88
2022-12-23T08:58:21.171Z,102381.44
2022-12-23T09:03:23.366Z,102378.03
2022-12-23T09:08:26.206Z,102378.97
2022-12-23T09:13:35.211Z,102379.84
2022-12-23T09:18:38.496Z,102374.59
2022-12-23T09:23:41.614Z,102374.59
2022-12-23T09:28:43.658Z,102372.81
2022-12-23T09:33:51.023Z,102354.63
2022-12-23T09:38:57.745Z,102367.31
2022-12-23T09:44:21.816Z,102365.59
2022-12-23T09:49:24.269Z,102381.44
2022-12-23T09:54:29.669Z,102376.22
2022-12-23T09:59:37.759Z,102370.91
2022-12-23T10:04:56.922Z,102370.09
2022-12-23T10:10:03.465Z,102368.25
2022-12-23T10:15:22.497Z,102352.31
2022-12-23T10:20:40.225Z,102351.50
2022-12-23T10:25:50.971Z,102351.38
2022-12-23T10:37:05.141Z,102361.94
2022-12-23T10:42:22.470Z,102358.41
2022-12-23T10:47:39.593Z,102358.41
2022-12-23T10:52:45.678Z,102354.84
2022-12-23T10:57:48.244Z,102342.50
2022-12-23T11:03:18.306Z,102339.75
2022-12-23T11:08:22.191Z,102340.63
2022-12-23T11:13:35.716Z,102337.97
2022-12-23T11:18:42.055Z,102343.19
2022-12-23T11:23:44.457Z,102337.88
2022-12-23T11:28:52.569Z,102335.22
2022-12-23T11:34:02.816Z,102328.03
2022-12-23T11:39:10.838Z,102312.88
2022-12-23T11:44:28.194Z,102301.31
2022-12-23T11:49:33.951Z,102296.00
2022-12-23T11:54:37.025Z,102288.91
2022-12-23T11:59:42.839Z,102282.72
2022-12-23T12:05:02.011Z,102293.34
2022-12-23T12:10:05.131Z,102289.75
2022-12-23T12:15:17.790Z,102296.88
2022-12-23T12:20:39.581Z,102286.25
2022-12-23T12:25:49.916Z,102272.00
2022-12-23T12:31:04.906Z,102271.19
2022-12-23T12:36:11.575Z,102261.31
2022-12-23T12:41:50.601Z,102256.94
2022-12-23T12:47:52.220Z,102252.47
2022-12-23T12:52:43.436Z,102264.81
2022-12-23T12:57:45.854Z,102245.38
2022-12-23T13:03:02.006Z,102244.44
2022-12-23T13:08:26.719Z,102247.94
2022-12-23T13:13:56.639Z,102248.72
2022-12-23T13:19:20.120Z,102234.59
2022-12-23T13:24:29.876Z,102222.06
2022-12-23T13:30:04.989Z,102215.88
2022-12-23T13:35:25.732Z,102204.44
2022-12-23T13:40:57.803Z,102189.34
2022-12-23T13:46:04.087Z,102185.75
2022-12-23T13:51:06.152Z,102203.47
2022-12-23T13:56:30.064Z,102197.31
2022-12-23T14:01:36.514Z,102206.91
2022-12-23T14:06:38.541Z,102199.81
2022-12-23T14:11:40.944Z,102187.38
2022-12-23T14:17:16.614Z,102196.22
2022-12-23T14:23:00.063Z,102208.63
2022-12-23T14:28:25.106Z,102224.38
2022-12-23T14:33:34.228Z,102222.69
2022-12-23T14:38:36.465Z,102228.00
2022-12-23T14:43:44.658Z,102209.41
2022-12-23T14:48:46.728Z,102210.25
2022-12-23T14:53:52.545Z,102194.31
2022-12-23T14:59:12.689Z,102205.78
2022-12-23T15:04:14.729Z,102196.00
2022-12-23T15:09:37.631Z,102203.13
2022-12-23T15:15:02.192Z,102208.44
2022-12-23T15:20:10.265Z,102199.53
2022-12-23T15:25:31.892Z,102192.50
2022-12-23T15:30:37.600Z,102194.31
2022-12-23T15:35:40.646Z,102195.94
2022-12-23T15:40:43.876Z,102177.34
2022-12-23T15:45:46.509Z,102165.78
2022-12-23T15:50:50.524Z,102173.81
2022-12-23T15:55:52.709Z,102185.31
2022-12-23T16:00:59.385Z,102173.81
2022-12-23T16:06:25.890Z,102189.84
2022-12-23T16:11:40.797Z,102200.38
2022-12-23T16:16:43.815Z,102202.97
2022-12-23T16:21:46.006Z,102203.75
2022-12-23T16:26:48.174Z,102203.63
2022-12-23T16:31:57.421Z,102199.28
2022-12-23T16:37:03.192Z,102188.81
2022-12-23T16:42:05.372Z,102188.75
2022-12-23T16:47:13.401Z,102183.44
2022-12-23T16:52:15.771Z,102178.19
2022-12-23T16:57:17.864Z,102192.34
2022-12-23T17:02:23.951Z,102188.91
2022-12-23T17:07:27.009Z,102190.63
2022-12-23T17:12:29.135Z,102193.28
2022-12-23T17:17:31.550Z,102186.16
2022-12-23T17:22:36.094Z,102175.53
2022-12-23T17:27:38.146Z,102185.22
2022-12-23T17:32:40.319Z,102191.31
2022-12-23T17:37:42.843Z,102189.69
2022-12-23T17:42:45.669Z,102184.44
2022-12-23T17:47:47.808Z,102191.41
2022-12-23T17:52:52.392Z,102188.75
2022-12-23T17:57:55.725Z,102193.13
2022-12-23T18:02:57.873Z,102205.53
2022-12-23T18:08:01.760Z,102195.94
2022-12-23T18:13:06.923Z,102193.34
2022-12-23T18:18:24.435Z,102186.25
2022-12-23T18:23:31.716Z,102195.06
2022-12-23T18:28:33.876Z,102189.69
2022-12-23T18:33:35.961Z,102174.97
2022-12-23T18:38:38.054Z,102189.59
2022-12-23T18:43:40.158Z,102182.66
2022-12-23T18:48:42.317Z,102191.56
2022-12-23T18:53:45.598Z,102207.41
2022-12-23T18:58:47.987Z,102199.38
2022-12-23T19:03:50.059Z,102204.59
2022-12-23T19:08:52.122Z,102206.56
2022-12-23T19:13:54.241Z,102196.88
2022-12-23T19:18:56.360Z,102195.00
2022-12-23T19:23:58.771Z,102194.06
2022-12-23T19:29:01.039Z,102199.38
2022-12-23T19:34:03.572Z,102188.81
2022-12-23T19:39:05.659Z,102199.38
2022-12-23T19:44:08.087Z,102197.72
2022-12-23T19:49:17.537Z,102197.72
2022-12-23T19:54:21.805Z,102196.00
2022-12-23T19:59:24.161Z,102191.56
2022-12-23T20:04:26.514Z,102181.78
2022-12-23T20:09:28.679Z,102180.06
2022-12-23T20:14:34.018Z,102185.22
2022-12-23T20:19:42.063Z,102196.72
2022-12-23T20:24:47.944Z,102200.38
2022-12-23T20:29:50.094Z,102188.91
2022-12-23T20:34:52.158Z,102198.59
2022-12-23T20:39:54.370Z,102204.84
2022-12-23T20:44:56.407Z,102211.94
2022-12-23T20:49:58.433Z,102220.69
2022-12-23T20:55:01.902Z,102212.66
2022-12-23T21:00:07.747Z,102215.31
2022-12-23T21:05:09.873Z,102212.81
2022-12-23T21:10:12.107Z,102221.63
2022-12-23T21:15:14.183Z,102218.03
2022-12-23T21:20:16.407Z,102213.59
2022-12-23T21:25:18.447Z,102202.97
2022-12-23T21:30:20.704Z,102201.25
2022-12-23T21:35:22.802Z,102187.09
2022-12-23T21:40:24.969Z,102183.59
2022-12-23T21:45:27.098Z,102184.44
2022-12-23T21:50:29.980Z,102176.56
2022-12-23T21:55:32.088Z,102191.47
2022-12-23T22:00:34.233Z,102190.47
2022-12-23T22:05:36.333Z,102182.50
2022-12-23T22:10:39.665Z,102184.38
2022-12-23T22:15:43.142Z,102194.13
2022-12-23T22:20:46.504Z,102196.78
2022-12-23T22:25:55.608Z,102189.75
2022-12-23T22:31:06.974Z,102193.28
2022-12-23T22:36:12.051Z,102192.34
2022-12-23T22:41:16.239Z,102183.44
2022-12-23T22:46:18.545Z,102187.88
2022-12-23T22:51:23.925Z,102183.50
2022-12-23T22:56:26.767Z,102178.19
2022-12-23T23:01:34.527Z,102174.53
2022-12-23T23:06:38.827Z,102182.38
2022-12-23T23:11:41.315Z,102173.56
2022-12-23T23:16:43.557Z,102161.25
2022-12-23T23:21:45.900Z,102175.38
2022-12-23T23:26:48.088Z,102164.75
2022-12-23T23:31:50.374Z,102161.13
2022-12-23T23:36:52.826Z,102172.63
2022-12-23T23:41:55.306Z,102170.16
2022-12-23T23:46:57.446Z,102172.81
2022-12-23T23:51:59.526Z,102172.31
2022-12-23T23:57:01.678Z,102184.28
